Time;durP1;ratioP1;P1;durP2;ratioP2;P2;SDS_P1;SDS_P2;PMS_P1;PMS_P2;Temp;Humidity;BMP_temperature;BMP_pressure;BME280_temperature;BME280_humidity;BME280_pressure;Samples;Min_cycle;Max_cycle;Signal;HPM_P1;HPM_P2
2023/02/25 00:00:52;;;;;;;6.45;2.58;;;2.30;100.00;;;;;;5018476;28;20053;-76
2023/02/25 00:03:19;;;;;;;16.65;2.67;;;2.30;100.00;;;;;;4999153;28;20165;-77
2023/02/25 00:05:46;;;;;;;11.55;2.10;;;2.30;100.00;;;;;;5021503;28;20406;-78
2023/02/25 00:08:15;;;;;;;5.40;1.85;;;2.30;100.00;;;;;;5004567;28;20103;-78
2023/02/25 00:10:42;;;;;;;3.35;1.60;;;2.40;100.00;;;;;;5020682;28;20100;-78
2023/02/25 00:13:09;;;;;;;10.38;2.42;;;2.40;100.00;;;;;;5020692;28;20748;-78
2023/02/25 00:15:44;;;;;;;9.82;2.40;;;2.40;100.00;;;;;;5006706;28;20045;-78
2023/02/25 00:18:11;;;;;;;10.57;2.20;;;2.40;100.00;;;;;;5004578;28;20072;-79
2023/02/25 00:20:41;;;;;;;10.38;2.53;;;2.40;100.00;;;;;;4999775;28;20049;-78
2023/02/25 00:23:08;;;;;;;8.90;2.38;;;2.40;100.00;;;;;;5021558;28;20076;-78
2023/02/25 00:25:35;;;;;;;9.57;1.90;;;2.30;100.00;;;;;;5006261;28;20042;-78
2023/02/25 00:28:05;;;;;;;8.77;2.25;;;2.30;100.00;;;;;;5004266;28;20057;-78
2023/02/25 00:30:33;;;;;;;5.15;1.55;;;2.40;100.00;;;;;;5021570;28;20980;-78
2023/02/25 00:33:00;;;;;;;6.93;1.85;;;2.30;100.00;;;;;;5018261;28;20050;-78
2023/02/25 00:35:27;;;;;;;9.15;1.75;;;2.30;100.00;;;;;;5022163;28;20053;-78
2023/02/25 00:37:54;;;;;;;4.57;1.92;;;2.30;100.00;;;;;;4999666;28;20045;-78
2023/02/25 00:40:29;;;;;;;8.77;2.15;;;2.30;100.00;;;;;;4998723;28;20123;-79
2023/02/25 00:42:56;;;;;;;5.88;2.20;;;2.30;100.00;;;;;;5001507;28;20060;-79
2023/02/25 00:45:23;;;;;;;6.38;2.65;;;2.30;100.00;;;;;;5021047;28;20053;-78
2023/02/25 00:47:50;;;;;;;7.43;1.67;;;2.30;100.00;;;;;;5010276;28;20665;-80
2023/02/25 00:50:17;;;;;;;6.68;2.00;;;2.30;100.00;;;;;;5003791;28;20144;-79
2023/02/25 00:52:45;;;;;;;10.70;2.28;;;2.40;100.00;;;;;;5004154;28;20054;-78
2023/02/25 00:55:12;;;;;;;8.27;2.30;;;2.40;100.00;;;;;;4999443;28;20065;-79
2023/02/25 00:57:39;;;;;;;8.57;2.30;;;2.40;100.00;;;;;;5011814;28;20061;-78
2023/02/25 01:00:09;;;;;;;4.47;2.00;;;2.40;100.00;;;;;;5000693;28;20054;-78
2023/02/25 01:02:36;;;;;;;7.82;2.00;;;2.40;100.00;;;;;;5017449;28;20562;-78
2023/02/25 01:05:03;;;;;;;9.25;2.35;;;2.30;100.00;;;;;;5008240;28;20049;-77
2023/02/25 01:07:30;;;;;;;8.40;2.20;;;2.30;100.00;;;;;;5019661;28;20100;-78
2023/02/25 01:09:57;;;;;;;5.80;1.70;;;2.20;100.00;;;;;;5004714;28;20142;-78
2023/02/25 01:12:24;;;;;;;4.95;1.92;;;2.20;100.00;;;;;;5001616;28;20490;-78
2023/02/25 01:14:53;;;;;;;5.88;1.52;;;2.20;100.00;;;;;;5023676;28;20049;-77
2023/02/25 01:17:21;;;;;;;6.88;1.30;;;2.20;100.00;;;;;;5019012;28;20540;-78
2023/02/25 01:19:48;;;;;;;2.53;1.05;;;2.20;100.00;;;;;;5000392;28;20928;-78
2023/02/25 01:22:15;;;;;;;4.22;1.65;;;2.10;100.00;;;;;;5000657;28;20053;-78
2023/02/25 01:24:41;;;;;;;3.28;1.30;;;2.10;100.00;;;;;;5022808;28;20057;-78
2023/02/25 01:27:08;;;;;;;3.10;1.20;;;2.10;100.00;;;;;;5019817;28;20058;-78
2023/02/25 01:29:39;;;;;;;7.57;0.82;;;2.10;100.00;;;;;;4998105;28;20068;-78
2023/02/25 01:32:08;;;;;;;2.92;1.20;;;2.00;100.00;;;;;;5008981;28;20079;-78
2023/02/25 01:34:36;;;;;;;3.58;1.02;;;1.90;100.00;;;;;;5022452;28;20398;-79
2023/02/25 01:37:05;;;;;;;3.60;1.10;;;1.90;100.00;;;;;;5020535;28;20042;-78
2023/02/25 01:39:32;;;;;;;2.05;1.00;;;1.90;100.00;;;;;;5006262;28;20073;-78
2023/02/25 01:42:02;;;;;;;2.85;1.00;;;1.90;100.00;;;;;;5019396;28;20157;-78
2023/02/25 01:44:32;;;;;;;4.80;1.50;;;1.90;100.00;;;;;;5001341;28;20046;-78
2023/02/25 01:47:00;;;;;;;1.67;0.90;;;1.90;100.00;;;;;;5012062;28;20048;-78
2023/02/25 01:49:33;;;;;;;2.38;1.23;;;1.90;100.00;;;;;;5019911;28;20058;-78
2023/02/25 01:52:09;;;;;;;2.70;0.70;;;1.90;100.00;;;;;;5018414;28;20621;-80
2023/02/25 01:54:37;;;;;;;2.03;0.90;;;1.90;100.00;;;;;;5013047;28;20041;-80
2023/02/25 01:57:07;;;;;;;2.67;0.88;;;1.90;100.00;;;;;;5020863;28;20057;-79
2023/02/25 01:59:35;;;;;;;3.10;0.93;;;1.90;100.00;;;;;;5019039;28;20056;-78
2023/02/25 02:02:02;;;;;;;5.65;1.00;;;1.90;100.00;;;;;;5018103;28;20046;-79
2023/02/25 02:04:30;;;;;;;3.58;1.15;;;1.90;100.00;;;;;;5002797;28;20111;-79
2023/02/25 02:06:59;;;;;;;6.70;0.75;;;1.80;100.00;;;;;;4999700;28;20771;-79
2023/02/25 02:09:27;;;;;;;2.67;1.00;;;1.80;100.00;;;;;;5015761;28;20057;-75
2023/02/25 02:12:00;;;;;;;4.22;0.98;;;1.80;100.00;;;;;;5015784;28;20052;-76
2023/02/25 02:14:31;;;;;;;4.75;1.00;;;1.80;100.00;;;;;;5011773;28;20103;-77
2023/02/25 02:17:24;;;;;;;4.85;0.95;;;1.80;100.00;;;;;;5011433;28;20469;-76
2023/02/25 02:20:14;;;;;;;1.90;0.75;;;1.80;100.00;;;;;;5003240;28;20049;-77
2023/02/25 02:22:43;;;;;;;2.50;1.10;;;1.70;100.00;;;;;;5002026;28;20064;-77
2023/02/25 02:25:24;;;;;;;11.00;1.00;;;1.70;100.00;;;;;;4987548;28;20061;-77
2023/02/25 02:28:09;;;;;;;0.85;0.55;;;1.70;100.00;;;;;;5008458;28;20053;-77
2023/02/25 02:30:41;;;;;;;5.72;0.80;;;1.70;100.00;;;;;;5009382;28;20045;-76
2023/02/25 02:33:16;;;;;;;4.75;0.75;;;1.60;100.00;;;;;;5007644;28;20141;-76
2023/02/25 02:35:55;;;;;;;1.35;0.60;;;1.60;100.00;;;;;;4988760;28;20061;-76
2023/02/25 02:38:34;;;;;;;2.65;0.40;;;1.60;100.00;;;;;;4990379;28;20155;-76
2023/02/25 02:41:05;;;;;;;1.58;0.65;;;1.50;100.00;;;;;;4987934;28;20068;-77
2023/02/25 02:43:49;;;;;;;0.80;0.60;;;1.50;100.00;;;;;;5004670;28;20482;-77
2023/02/25 02:46:22;;;;;;;6.28;1.08;;;1.50;100.00;;;;;;5009293;28;20052;-76
2023/02/25 02:48:51;;;;;;;3.40;0.82;;;1.50;100.00;;;;;;5009012;28;20073;-76
2023/02/25 02:51:25;;;;;;;1.90;0.50;;;1.50;100.00;;;;;;5011846;28;20051;-75
2023/02/25 02:53:56;;;;;;;3.47;0.70;;;1.50;100.00;;;;;;5004230;28;20057;-75
2023/02/25 02:56:27;;;;;;;1.80;0.70;;;1.50;100.00;;;;;;4994210;28;20076;-76
2023/02/25 02:59:05;;;;;;;2.63;0.85;;;1.50;100.00;;;;;;4993310;28;20054;-76
2023/02/25 03:01:39;;;;;;;8.50;1.15;;;1.50;100.00;;;;;;4991525;28;20054;-77
2023/02/25 03:04:11;;;;;;;3.28;0.70;;;1.50;100.00;;;;;;5004180;28;20080;-77
2023/02/25 03:06:45;;;;;;;2.75;0.80;;;1.50;100.00;;;;;;5013471;28;20057;-76
2023/02/25 03:09:21;;;;;;;5.95;0.93;;;1.50;100.00;;;;;;5007710;28;20055;-77
2023/02/25 03:11:48;;;;;;;8.48;1.27;;;1.50;100.00;;;;;;4994986;28;20417;-76
2023/02/25 03:14:14;;;;;;;5.80;1.00;;;1.50;100.00;;;;;;4995461;28;20057;-77
2023/02/25 03:16:56;;;;;;;2.20;0.60;;;1.50;100.00;;;;;;5008943;28;20065;-76
2023/02/25 03:19:34;;;;;;;2.67;0.93;;;1.50;100.00;;;;;;4990659;28;20155;-77
2023/02/25 03:22:26;;;;;;;5.97;1.02;;;1.50;100.00;;;;;;5002612;28;20061;-75
2023/02/25 03:25:04;;;;;;;7.50;1.35;;;1.50;100.00;;;;;;5003551;28;20073;-77
2023/02/25 03:27:37;;;;;;;5.22;1.00;;;1.50;100.00;;;;;;4995620;28;20054;-76
2023/02/25 03:30:11;;;;;;;2.08;1.30;;;1.50;99.90;;;;;;5011034;28;20405;-76
2023/02/25 03:32:46;;;;;;;8.85;1.25;;;1.50;99.10;;;;;;5012751;28;20155;-76
2023/02/25 03:35:16;;;;;;;2.80;1.10;;;1.50;98.70;;;;;;4995871;28;20057;-76
2023/02/25 03:37:47;;;;;;;2.97;1.58;;;1.50;98.50;;;;;;4991550;28;20065;-77
2023/02/25 03:40:17;;;;;;;10.75;1.42;;;1.50;99.20;;;;;;5008990;28;20136;-77
2023/02/25 03:42:51;;;;;;;3.10;1.50;;;1.50;98.60;;;;;;4992583;28;20411;-77
2023/02/25 03:45:20;;;;;;;6.05;1.27;;;1.50;98.80;;;;;;5013876;28;20046;-77
2023/02/25 03:47:47;;;;;;;13.00;1.60;;;1.50;98.40;;;;;;5003084;28;20061;-77
2023/02/25 03:50:28;;;;;;;2.08;0.98;;;1.50;99.20;;;;;;5012681;28;20380;-75
2023/02/25 03:52:55;;;;;;;4.68;1.45;;;1.50;99.80;;;;;;4989828;28;20072;-78
2023/02/25 03:55:22;;;;;;;5.28;1.35;;;1.40;100.00;;;;;;4990917;28;20057;-77
2023/02/25 03:57:50;;;;;;;3.55;1.42;;;1.40;100.00;;;;;;5009435;28;20398;-77
2023/02/25 04:00:27;;;;;;;5.43;1.85;;;1.30;100.00;;;;;;4994103;28;20065;-77
2023/02/25 04:02:54;;;;;;;3.00;1.23;;;1.30;100.00;;;;;;5002461;28;20057;-77
2023/02/25 04:05:25;;;;;;;11.70;1.65;;;1.20;100.00;;;;;;5011743;28;20052;-77
2023/02/25 04:07:54;;;;;;;7.60;2.00;;;1.20;100.00;;;;;;4988997;28;20049;-77
2023/02/25 04:10:21;;;;;;;7.32;1.55;;;1.20;100.00;;;;;;5010416;28;20054;-78
2023/02/25 04:12:51;;;;;;;4.22;1.60;;;1.20;100.00;;;;;;5008836;28;20064;-76
2023/02/25 04:15:19;;;;;;;10.25;2.08;;;1.30;100.00;;;;;;5011434;28;20077;-77
2023/02/25 04:17:46;;;;;;;6.00;1.63;;;1.20;100.00;;;;;;5011837;28;20060;-77
2023/02/25 04:20:15;;;;;;;5.70;1.83;;;1.20;100.00;;;;;;4997790;28;20423;-77
2023/02/25 04:22:42;;;;;;;13.18;2.05;;;1.10;100.00;;;;;;5012820;28;20131;-77
2023/02/25 04:25:09;;;;;;;5.70;1.70;;;1.10;100.00;;;;;;4992372;28;20060;-77
2023/02/25 04:27:36;;;;;;;6.57;2.17;;;1.00;100.00;;;;;;5012513;28;20811;-74
2023/02/25 04:30:03;;;;;;;6.20;1.30;;;1.00;100.00;;;;;;5012726;28;20088;-76
2023/02/25 04:32:30;;;;;;;2.47;1.10;;;1.00;100.00;;;;;;4994099;28;20087;-76
2023/02/25 04:35:01;;;;;;;5.95;1.30;;;0.90;100.00;;;;;;5005725;28;20052;-75
2023/02/25 04:40:38;;;;;;;4.05;1.25;;;0.80;100.00;;;;;;5008906;28;20061;-77
2023/02/25 04:43:04;;;;;;;7.78;1.48;;;0.70;100.00;;;;;;5012859;28;20075;-77
2023/02/25 04:45:31;;;;;;;3.65;1.38;;;0.60;100.00;;;;;;5012919;28;20224;-78
2023/02/25 04:47:58;;;;;;;4.10;1.48;;;0.60;100.00;;;;;;5010251;28;20475;-77
2023/02/25 04:50:25;;;;;;;3.58;1.25;;;0.50;100.00;;;;;;4999202;28;20065;-78
2023/02/25 04:52:52;;;;;;;3.05;1.38;;;0.50;100.00;;;;;;4998070;28;20057;-80
2023/02/25 04:55:19;;;;;;;4.35;1.90;;;0.40;100.00;;;;;;4996820;28;20051;-77
2023/02/25 04:57:46;;;;;;;6.60;1.98;;;0.40;100.00;;;;;;4994847;28;20562;-77
2023/02/25 05:00:20;;;;;;;4.65;1.40;;;0.40;100.00;;;;;;5013118;28;20061;-77
2023/02/25 05:02:47;;;;;;;4.20;1.58;;;0.30;100.00;;;;;;4997198;28;20053;-78
2023/02/25 05:05:15;;;;;;;6.00;1.77;;;0.30;100.00;;;;;;4992432;28;20049;-78
2023/02/25 05:07:43;;;;;;;2.78;1.63;;;0.30;100.00;;;;;;5011965;28;20049;-78
2023/02/25 05:10:11;;;;;;;3.33;1.20;;;0.20;100.00;;;;;;5003609;28;20058;-79
2023/02/25 05:12:38;;;;;;;5.22;1.60;;;0.30;100.00;;;;;;5009762;28;20054;-77
2023/02/25 05:15:07;;;;;;;7.35;1.63;;;0.20;100.00;;;;;;5010149;28;20053;-77
2023/02/25 05:17:35;;;;;;;8.35;1.25;;;0.20;100.00;;;;;;4998976;28;20065;-78
2023/02/25 05:20:06;;;;;;;3.00;1.10;;;0.20;100.00;;;;;;5003827;28;20049;-79
2023/02/25 05:22:34;;;;;;;6.45;1.05;;;0.20;100.00;;;;;;5000310;28;20100;-78
2023/02/25 05:28:07;;;;;;;7.88;1.58;;;0.10;100.00;;;;;;5014313;28;20065;-76
2023/02/25 05:30:35;;;;;;;1.98;1.10;;;0.10;100.00;;;;;;4999676;28;20057;-77
2023/02/25 05:33:02;;;;;;;6.82;1.40;;;0.10;100.00;;;;;;5000554;28;20049;-76
2023/02/25 05:35:31;;;;;;;3.75;1.23;;;0.10;100.00;;;;;;4999679;28;20068;-76
2023/02/25 05:37:58;;;;;;;3.60;1.42;;;0.10;100.00;;;;;;5020987;28;20063;-76
2023/02/25 05:40:26;;;;;;;4.72;1.23;;;0.10;100.00;;;;;;5021073;28;20100;-75
2023/02/25 05:42:52;;;;;;;7.15;1.90;;;0.10;100.00;;;;;;5000667;28;20060;-75
2023/02/25 05:45:19;;;;;;;6.30;3.72;;;0.10;100.00;;;;;;5018434;28;20065;-76
2023/02/25 05:47:46;;;;;;;5.40;1.58;;;0.10;100.00;;;;;;5019655;28;20054;-76
2023/02/25 05:50:13;;;;;;;6.72;1.77;;;0.10;100.00;;;;;;5016319;28;20050;-76
2023/02/25 05:52:40;;;;;;;5.15;2.22;;;0.10;100.00;;;;;;5015201;28;20462;-77
2023/02/25 05:55:08;;;;;;;5.07;2.17;;;0.20;100.00;;;;;;5002717;28;20049;-77
2023/02/25 05:57:35;;;;;;;6.80;2.05;;;0.10;100.00;;;;;;5020886;28;20139;-76
2023/02/25 06:00:08;;;;;;;4.03;1.75;;;0.10;100.00;;;;;;5004279;28;20045;-77
2023/02/25 06:02:36;;;;;;;7.57;2.20;;;0.10;100.00;;;;;;5023850;28;20053;-76
2023/02/25 06:05:03;;;;;;;5.03;1.80;;;0.10;100.00;;;;;;5022717;28;20057;-76
2023/02/25 06:07:32;;;;;;;4.10;1.92;;;0.10;100.00;;;;;;5001909;28;20136;-76
2023/02/25 06:10:00;;;;;;;5.68;1.77;;;0.10;100.00;;;;;;5023914;28;20045;-76
2023/02/25 06:12:29;;;;;;;9.50;2.60;;;0.10;100.00;;;;;;5025411;28;20132;-78
2023/02/25 06:14:56;;;;;;;4.20;2.10;;;0.10;100.00;;;;;;5009459;28;20056;-78
2023/02/25 06:17:26;;;;;;;9.38;3.75;;;0.10;100.00;;;;;;5009460;28;20065;-77
2023/02/25 06:19:53;;;;;;;8.02;3.20;;;0.10;100.00;;;;;;5024164;28;20049;-77
2023/02/25 06:22:20;;;;;;;10.98;2.65;;;0.10;100.00;;;;;;5007566;28;20058;-76
2023/02/25 06:24:48;;;;;;;7.18;2.95;;;0.10;100.00;;;;;;5006130;28;20059;-77
2023/02/25 06:27:15;;;;;;;3.58;2.13;;;0.10;100.00;;;;;;5006570;28;20056;-77
2023/02/25 06:29:42;;;;;;;7.18;2.20;;;0.10;100.00;;;;;;5022870;28;20128;-77
2023/02/25 06:32:10;;;;;;;3.80;1.95;;;0.10;100.00;;;;;;5009493;28;20045;-78
2023/02/25 06:34:38;;;;;;;4.85;2.05;;;0.10;100.00;;;;;;5009644;28;20405;-77
2023/02/25 06:37:05;;;;;;;20.25;10.68;;;0.10;100.00;;;;;;5009665;28;20067;-77
2023/02/25 06:39:32;;;;;;;9.75;2.47;;;0.00;100.00;;;;;;5010386;28;20045;-77
2023/02/25 06:41:59;;;;;;;11.00;5.70;;;0.00;100.00;;;;;;5012023;28;20087;-77
2023/02/25 06:44:28;;;;;;;3.33;1.85;;;0.00;100.00;;;;;;5012804;28;20041;-78
2023/02/25 06:46:55;;;;;;;5.85;1.50;;;0.00;100.00;;;;;;5011632;28;20045;-78
2023/02/25 06:49:23;;;;;;;6.90;2.03;;;0.00;100.00;;;;;;5010833;28;21002;-77
2023/02/25 06:51:50;;;;;;;5.97;1.50;;;0.00;100.00;;;;;;5005923;28;20053;-76
2023/02/25 06:54:18;;;;;;;4.25;1.85;;;0.00;100.00;;;;;;5007408;28;20045;-77
2023/02/25 06:56:45;;;;;;;3.88;1.67;;;0.00;100.00;;;;;;5008341;28;20057;-79
2023/02/25 06:59:12;;;;;;;8.82;1.92;;;0.00;100.00;;;;;;5029470;28;20079;-78
2023/02/25 07:01:39;;;;;;;7.43;2.38;;;0.00;100.00;;;;;;5030284;28;20049;-79
2023/02/25 07:04:06;;;;;;;11.20;3.42;;;0.00;100.00;;;;;;5009439;28;20490;-80
2023/02/25 07:06:33;;;;;;;2.65;1.23;;;0.00;100.00;;;;;;5026597;28;20073;-81
2023/02/25 07:09:00;;;;;;;19.85;1.60;;;0.00;100.00;;;;;;5011061;28;20155;-78
2023/02/25 07:11:29;;;;;;;6.55;1.30;;;0.00;100.00;;;;;;5011673;28;20490;-79
2023/02/25 07:13:56;;;;;;;5.53;1.52;;;0.00;100.00;;;;;;5028438;28;20049;-78
2023/02/25 07:16:24;;;;;;;3.28;1.73;;;0.00;100.00;;;;;;5018185;28;20053;-79
2023/02/25 07:18:51;;;;;;;8.85;2.33;;;0.00;100.00;;;;;;5006223;28;20064;-79
2023/02/25 07:21:18;;;;;;;8.98;2.33;;;0.00;100.00;;;;;;5011214;28;20061;-78
2023/02/25 07:23:45;;;;;;;4.38;2.22;;;0.00;100.00;;;;;;5010573;28;20159;-79
2023/02/25 07:26:13;;;;;;;2.60;1.40;;;-0.10;100.00;;;;;;5026271;28;20049;-79
2023/02/25 07:28:40;;;;;;;2.53;1.30;;;0.00;100.00;;;;;;5005944;28;20111;-76
2023/02/25 07:31:11;;;;;;;8.43;1.55;;;0.00;100.00;;;;;;5022430;28;20049;-77
2023/02/25 07:33:38;;;;;;;2.45;1.23;;;0.00;100.00;;;;;;5023264;28;20042;-79
2023/02/25 07:36:05;;;;;;;4.03;1.30;;;0.00;100.00;;;;;;5023794;28;20056;-79
2023/02/25 07:38:31;;;;;;;3.42;1.40;;;0.00;100.00;;;;;;5027177;28;20068;-77
2023/02/25 07:41:10;;;;;;;3.58;0.93;;;0.00;100.00;;;;;;5010559;28;20133;-78
2023/02/25 07:43:38;;;;;;;3.67;1.20;;;0.00;100.00;;;;;;5006191;28;20049;-74
2023/02/25 07:46:06;;;;;;;7.40;1.70;;;0.00;100.00;;;;;;4998904;28;20045;-75
2023/02/25 07:48:33;;;;;;;4.28;1.23;;;0.00;100.00;;;;;;5016979;28;20063;-75
2023/02/25 07:51:11;;;;;;;5.50;1.75;;;0.00;100.00;;;;;;5006651;28;20059;-74
2023/02/25 07:53:39;;;;;;;1.73;1.40;;;0.00;100.00;;;;;;5016485;28;20045;-75
2023/02/25 07:56:07;;;;;;;5.63;1.65;;;0.00;100.00;;;;;;5017517;28;20046;-74
2023/02/25 07:58:35;;;;;;;2.70;1.27;;;0.00;100.00;;;;;;5019025;28;20096;-74
2023/02/25 08:01:10;;;;;;;2.35;1.23;;;0.00;100.00;;;;;;5019072;28;20049;-74
2023/02/25 08:03:37;;;;;;;7.65;1.60;;;0.00;100.00;;;;;;5021595;28;20064;-74
2023/02/25 08:06:08;;;;;;;8.20;1.50;;;0.00;100.00;;;;;;5012019;28;20060;-75
2023/02/25 08:08:36;;;;;;;7.70;1.55;;;0.00;100.00;;;;;;4998236;28;20077;-74
2023/02/25 08:11:11;;;;;;;4.28;1.60;;;0.00;100.00;;;;;;5045570;22;20078;-74
2023/02/25 08:13:38;;;;;;;4.85;1.67;;;0.00;100.00;;;;;;5063110;28;20048;-74
2023/02/25 08:16:10;;;;;;;4.68;1.65;;;0.00;100.00;;;;;;5071616;28;20062;-74
2023/02/25 08:18:38;;;;;;;4.22;1.25;;;0.00;100.00;;;;;;5067251;28;20130;-74
2023/02/25 08:21:05;;;;;;;2.63;1.30;;;0.10;100.00;;;;;;5084154;28;20150;-73
2023/02/25 08:23:32;;;;;;;3.42;1.02;;;0.10;100.00;;;;;;5061520;28;20703;-74
2023/02/25 08:25:59;;;;;;;7.13;1.75;;;0.10;100.00;;;;;;5068002;28;20553;-74
2023/02/25 08:28:30;;;;;;;11.10;2.60;;;0.20;100.00;;;;;;5082879;28;20048;-74
2023/02/25 08:31:02;;;;;;;9.45;3.05;;;0.20;100.00;;;;;;5082946;28;20056;-74
2023/02/25 08:33:29;;;;;;;20.83;3.17;;;0.20;100.00;;;;;;5078248;28;20075;-73
2023/02/25 08:36:05;;;;;;;7.00;2.92;;;0.30;100.00;;;;;;5071733;28;20048;-76
2023/02/25 08:38:32;;;;;;;6.93;2.55;;;0.40;100.00;;;;;;5062203;28;20134;-78
2023/02/25 08:40:59;;;;;;;6.35;1.85;;;0.50;100.00;;;;;;5083758;28;20047;-76
2023/02/25 08:43:26;;;;;;;4.70;1.27;;;0.50;100.00;;;;;;5067219;28;20130;-77
2023/02/25 08:45:55;;;;;;;13.02;2.38;;;0.50;100.00;;;;;;5078317;28;20548;-77
2023/02/25 08:48:22;;;;;;;8.52;1.80;;;0.50;100.00;;;;;;5081547;28;20040;-76
2023/02/25 08:50:49;;;;;;;2.38;1.38;;;0.40;100.00;;;;;;5067979;28;20055;-75
2023/02/25 08:53:16;;;;;;;8.40;1.55;;;0.30;100.00;;;;;;5085374;28;20071;-76
2023/02/25 08:55:43;;;;;;;5.32;1.35;;;0.20;100.00;;;;;;5076139;28;20047;-75
2023/02/25 08:58:10;;;;;;;10.98;1.42;;;0.20;100.00;;;;;;5065360;28;20048;-76
2023/02/25 09:00:37;;;;;;;5.18;1.45;;;0.20;100.00;;;;;;5064306;28;20047;-76
2023/02/25 09:03:04;;;;;;;5.70;1.40;;;0.20;100.00;;;;;;5061761;28;20055;-76
2023/02/25 09:05:31;;;;;;;5.10;1.38;;;0.20;100.00;;;;;;5064890;28;20040;-80
2023/02/25 09:07:58;;;;;;;6.65;1.23;;;0.20;100.00;;;;;;5067148;28;20044;-76
2023/02/25 09:10:25;;;;;;;4.68;1.63;;;0.10;100.00;;;;;;5069610;28;20057;-76
2023/02/25 09:16:07;;;;;;;3.45;1.48;;;0.20;100.00;;;;;;5021343;28;20128;-77
2023/02/25 09:18:34;;;;;;;4.88;1.67;;;0.50;100.00;;;;;;5028537;28;20053;-78
2023/02/25 09:21:02;;;;;;;7.70;1.38;;;0.70;100.00;;;;;;5013652;28;20741;-79
2023/02/25 09:23:28;;;;;;;9.70;1.30;;;0.80;100.00;;;;;;5012121;28;20049;-80
2023/02/25 09:26:01;;;;;;;1.70;0.98;;;0.90;100.00;;;;;;5029484;28;20779;-77
2023/02/25 09:28:28;;;;;;;5.00;0.95;;;1.00;100.00;;;;;;5010579;28;20558;-77
2023/02/25 09:30:56;;;;;;;7.25;1.00;;;1.10;100.00;;;;;;5021078;28;20055;-77
2023/02/25 09:33:25;;;;;;;6.60;1.30;;;1.30;100.00;;;;;;5019425;28;20403;-77
2023/02/25 09:35:52;;;;;;;4.45;0.90;;;1.20;100.00;;;;;;5028074;28;20060;-77
2023/02/25 09:38:19;;;;;;;4.50;0.80;;;1.30;100.00;;;;;;5009065;28;20064;-77
2023/02/25 09:40:48;;;;;;;7.05;0.90;;;1.30;100.00;;;;;;5028321;28;20128;-77
2023/02/25 09:43:38;;;;;;;7.85;0.98;;;1.10;100.00;;;;;;5029745;28;20056;-77
2023/02/25 09:46:09;;;;;;;9.25;1.33;;;1.10;100.00;;;;;;5021569;28;20367;-77
2023/02/25 09:48:51;;;;;;;6.57;0.68;;;0.90;99.70;;;;;;5024756;28;20041;-76
2023/02/25 09:51:20;;;;;;;3.85;1.42;;;0.70;100.00;;;;;;5015687;28;20839;-76
2023/02/25 09:53:53;;;;;;;3.40;1.20;;;0.40;100.00;;;;;;4998309;28;20056;-76
2023/02/25 09:56:25;;;;;;;6.82;1.45;;;0.30;100.00;;;;;;5025105;28;20065;-76
2023/02/25 09:58:58;;;;;;;3.35;1.20;;;0.20;100.00;;;;;;5009053;28;20050;-76
2023/02/25 10:01:48;;;;;;;6.28;1.60;;;0.20;100.00;;;;;;5018874;28;20054;-77
2023/02/25 10:04:36;;;;;;;7.00;2.22;;;0.20;100.00;;;;;;5024808;28;20049;-77
2023/02/25 10:07:21;;;;;;;10.55;3.00;;;0.20;100.00;;;;;;5016814;28;20160;-78
2023/02/25 10:10:00;;;;;;;13.63;4.22;;;0.30;100.00;;;;;;5021906;28;20042;-78
2023/02/25 10:12:33;;;;;;;8.25;2.60;;;0.40;100.00;;;;;;5016923;28;20514;-78
2023/02/25 10:15:13;;;;;;;9.77;3.78;;;0.50;100.00;;;;;;5003637;28;20053;-78
2023/02/25 10:17:58;;;;;;;6.95;2.38;;;0.70;100.00;;;;;;5022690;28;20406;-78
2023/02/25 10:20:44;;;;;;;;;;;0.90;100.00;;;;;;5023492;28;20056;-79
2023/02/25 10:23:49;;;;;;;2.55;1.67;;;1.10;100.00;;;;;;5029641;28;19979;-79
2023/02/25 10:26:28;;;;;;;10.90;2.63;;;1.20;100.00;;;;;;5026062;28;20429;-79
2023/02/25 10:29:00;;;;;;;7.03;2.45;;;1.40;100.00;;;;;;5028025;28;20080;-79
2023/02/25 10:31:31;;;;;;;11.75;2.05;;;1.50;100.00;;;;;;5011952;28;20045;-78
2023/02/25 10:34:13;;;;;;;4.10;1.20;;;1.50;100.00;;;;;;5007155;28;20076;-79
2023/02/25 10:36:46;;;;;;;3.75;1.52;;;1.40;98.70;;;;;;5011481;28;20447;-79
2023/02/25 10:39:13;;;;;;;5.57;1.35;;;1.40;99.90;;;;;;5028567;28;20060;-80
2023/02/25 10:41:40;;;;;;;3.08;1.20;;;1.30;98.70;;;;;;5029594;28;20770;-78
2023/02/25 10:44:11;;;;;;;10.70;1.83;;;1.20;97.70;;;;;;5029362;28;20059;-79
2023/02/25 10:50:24;;;;;;;2.05;1.15;;;0.60;100.00;;;;;;5039343;23;20066;-78
2023/02/25 10:53:16;;;;;;;3.15;1.08;;;0.40;100.00;;;;;;5038712;28;20048;-77
2023/02/25 10:55:42;;;;;;;2.22;1.20;;;0.30;100.00;;;;;;5050421;28;20107;-78
2023/02/25 10:58:34;;;;;;;4.85;1.10;;;0.20;100.00;;;;;;5035780;28;20128;-78
2023/02/25 11:01:19;;;;;;;4.93;2.15;;;0.10;100.00;;;;;;5043648;28;20056;-78
2023/02/25 11:03:58;;;;;;;3.30;1.33;;;0.10;100.00;;;;;;5026724;28;20515;-80
2023/02/25 11:06:30;;;;;;;3.63;1.77;;;0.10;100.00;;;;;;5028029;28;20728;-79
2023/02/25 11:09:05;;;;;;;2.42;1.10;;;0.10;100.00;;;;;;5026413;28;20041;-79
2023/02/25 11:11:35;;;;;;;;;;;0.10;100.00;;;;;;5030246;28;20052;-80
2023/02/25 11:14:13;;;;;;;3.17;1.80;;;0.10;100.00;;;;;;5050694;28;20008;-80
2023/02/25 11:16:43;;;;;;;6.35;1.30;;;0.00;100.00;;;;;;5041605;28;20077;-81
2023/02/25 11:19:13;;;;;;;3.97;1.27;;;0.10;100.00;;;;;;5048634;28;20076;-80
2023/02/25 11:21:41;;;;;;;3.10;1.10;;;0.10;100.00;;;;;;5053739;28;20198;-79
2023/02/25 11:24:17;;;;;;;3.05;1.50;;;0.10;100.00;;;;;;5030566;28;20797;-79
2023/02/25 11:26:46;;;;;;;3.13;1.45;;;0.10;100.00;;;;;;5050710;28;20120;-79
2023/02/25 11:29:19;;;;;;;3.30;1.15;;;0.10;100.00;;;;;;5047680;28;20045;-79
2023/02/25 11:31:54;;;;;;;2.92;1.00;;;0.10;100.00;;;;;;5033476;28;20097;-79
2023/02/25 11:34:30;;;;;;;3.72;1.08;;;0.20;100.00;;;;;;5025749;28;20081;-79
2023/02/25 11:37:26;;;;;;;8.23;1.10;;;0.20;100.00;;;;;;5052204;28;20052;-78
2023/02/25 11:39:55;;;;;;;6.60;1.23;;;0.20;100.00;;;;;;5041367;28;20041;-78
2023/02/25 11:42:24;;;;;;;5.88;1.00;;;0.20;100.00;;;;;;5049777;28;20055;-79
2023/02/25 11:45:00;;;;;;;7.13;1.35;;;0.30;100.00;;;;;;5048748;28;20045;-79
2023/02/25 11:47:37;;;;;;;2.30;0.73;;;0.30;100.00;;;;;;5020036;28;20519;-78
2023/02/25 11:50:12;;;;;;;6.20;1.38;;;0.40;100.00;;;;;;5052050;28;20048;-78
2023/02/25 11:52:45;;;;;;;4.32;1.02;;;0.40;100.00;;;;;;5047482;28;20049;-78
2023/02/25 11:55:15;;;;;;;2.10;0.73;;;0.40;100.00;;;;;;5050760;28;20044;-77
2023/02/25 11:58:04;;;;;;;6.35;1.08;;;0.40;99.80;;;;;;5047474;28;20413;-75
2023/02/25 12:00:30;;;;;;;2.65;1.05;;;0.50;99.30;;;;;;5046927;28;20053;-76
2023/02/25 12:03:42;;;;;;;9.45;2.28;;;0.50;99.40;;;;;;5050501;28;20522;-76
2023/02/25 12:06:35;;;;;;;7.47;1.50;;;0.50;99.50;;;;;;5008392;28;20045;-76
2023/02/25 12:09:20;;;;;;;2.72;0.98;;;0.60;98.90;;;;;;5026844;28;20090;-76
2023/02/25 12:12:22;;;;;;;7.47;2.10;;;0.60;98.90;;;;;;5040405;28;20637;-76
2023/02/25 12:19:09;;;;;;;3.90;1.20;;;0.70;97.60;;;;;;5025507;28;20132;-76
2023/02/25 12:22:14;;;;;;;5.43;0.82;;;0.70;93.50;;;;;;5017118;28;20073;-79
2023/02/25 12:25:19;;;;;;;1.98;1.02;;;0.60;93.30;;;;;;5024285;28;20057;-77
2023/02/25 12:28:06;;;;;;;9.77;1.00;;;0.60;91.60;;;;;;5025705;28;20140;-80
2023/02/25 12:30:46;;;;;;;3.45;1.10;;;0.60;92.00;;;;;;5041766;23;20165;-84
2023/02/25 12:33:49;;;;;;;3.78;1.23;;;0.70;93.60;;;;;;5068692;28;20041;-83
2023/02/25 12:36:41;;;;;;;5.95;0.98;;;0.80;93.40;;;;;;5067067;28;20044;-85
2023/02/25 12:39:27;;;;;;;4.80;0.75;;;1.10;93.20;;;;;;5050993;28;20048;-83
2023/02/25 12:42:38;;;;;;;4.18;0.93;;;1.30;88.30;;;;;;5068407;28;20052;-75
2023/02/25 12:45:40;;;;;;;3.35;0.93;;;1.20;85.50;;;;;;5059993;28;20054;-77
2023/02/25 12:48:43;;;;;;;2.70;0.93;;;1.10;87.20;;;;;;5051375;22;20045;-79
2023/02/25 12:51:31;;;;;;;4.13;1.55;;;1.00;87.80;;;;;;5000329;28;20064;-79
2023/02/25 12:54:33;;;;;;;9.85;2.22;;;1.00;88.10;;;;;;4994406;28;20053;-87
2023/02/25 12:57:24;;;;;;;13.82;2.60;;;1.00;90.50;;;;;;4989943;28;20468;-81
2023/02/25 13:00:25;;;;;;;5.53;1.90;;;0.90;89.10;;;;;;4993804;28;20045;-79
2023/02/25 13:03:32;;;;;;;4.32;0.68;;;0.90;89.50;;;;;;4995608;28;20056;-80
2023/02/25 13:06:15;;;;;;;3.53;1.00;;;0.80;87.10;;;;;;4996611;28;20057;-78
2023/02/25 13:08:54;;;;;;;4.30;1.73;;;0.80;89.50;;;;;;5008225;28;20049;-77
2023/02/25 13:11:39;;;;;;;5.53;1.73;;;0.80;88.70;;;;;;5014175;28;20111;-79
2023/02/25 13:14:39;;;;;;;6.47;2.60;;;0.70;89.00;;;;;;5017608;28;20082;-78
2023/02/25 13:17:36;;;;;;;4.30;2.08;;;0.80;90.50;;;;;;4998937;28;20556;-78
2023/02/25 13:20:40;;;;;;;6.80;1.90;;;0.80;88.80;;;;;;5018098;28;20045;-79
2023/02/25 13:23:16;;;;;;;11.05;2.00;;;0.80;87.00;;;;;;5001975;28;20054;-80
2023/02/25 13:26:10;;;;;;;4.63;1.30;;;0.80;85.50;;;;;;5015266;28;20042;-79
2023/02/25 13:29:00;;;;;;;10.90;3.00;;;0.80;84.40;;;;;;5011049;28;20116;-81
2023/02/25 13:31:43;;;;;;;3.70;1.63;;;0.80;85.90;;;;;;5023838;22;20045;-82
2023/02/25 13:34:32;;;;;;;4.38;1.73;;;0.80;86.40;;;;;;4995617;28;20046;-82